sensor_id;sensor_type;location;lat;lon;timestamp;P1;durP1;ratioP1;P2;durP2;ratioP2
58362;SDS011;54977;51.510;7.522;2022-08-21T00:03:47;16.90;;;8.88;;
58362;SDS011;54977;51.510;7.522;2022-08-21T00:08:49;14.38;;;6.03;;
58362;SDS011;54977;51.510;7.522;2022-08-21T00:13:53;13.30;;;5.72;;
58362;SDS011;54977;51.510;7.522;2022-08-21T00:18:55;12.07;;;5.50;;
58362;SDS011;54977;51.510;7.522;2022-08-21T00:23:56;10.68;;;5.55;;
58362;SDS011;54977;51.510;7.522;2022-08-21T00:29:00;13.90;;;5.28;;
58362;SDS011;54977;51.510;7.522;2022-08-21T00:34:02;9.20;;;5.35;;
58362;SDS011;54977;51.510;7.522;2022-08-21T00:39:05;13.23;;;5.72;;
58362;SDS011;54977;51.510;7.522;2022-08-21T00:44:10;14.60;;;6.22;;
58362;SDS011;54977;51.510;7.522;2022-08-21T00:49:14;10.82;;;5.00;;
58362;SDS011;54977;51.510;7.522;2022-08-21T00:54:17;11.70;;;5.35;;
58362;SDS011;54977;51.510;7.522;2022-08-21T00:59:23;11.73;;;5.53;;
58362;SDS011;54977;51.510;7.522;2022-08-21T01:04:26;14.95;;;5.47;;
58362;SDS011;54977;51.510;7.522;2022-08-21T01:09:28;12.63;;;5.93;;
58362;SDS011;54977;51.510;7.522;2022-08-21T01:14:31;11.23;;;5.80;;
58362;SDS011;54977;51.510;7.522;2022-08-21T01:19:34;11.32;;;5.13;;
58362;SDS011;54977;51.510;7.522;2022-08-21T01:24:37;11.57;;;5.03;;
58362;SDS011;54977;51.510;7.522;2022-08-21T01:29:42;12.35;;;4.75;;
58362;SDS011;54977;51.510;7.522;2022-08-21T01:34:55;10.38;;;5.00;;
58362;SDS011;54977;51.510;7.522;2022-08-21T01:39:59;10.15;;;4.63;;
58362;SDS011;54977;51.510;7.522;2022-08-21T01:45:01;15.75;;;5.57;;
58362;SDS011;54977;51.510;7.522;2022-08-21T01:50:03;10.02;;;5.10;;
58362;SDS011;54977;51.510;7.522;2022-08-21T01:55:09;15.10;;;7.60;;
58362;SDS011;54977;51.510;7.522;2022-08-21T02:00:12;11.85;;;5.60;;
58362;SDS011;54977;51.510;7.522;2022-08-21T02:05:15;10.75;;;5.50;;
58362;SDS011;54977;51.510;7.522;2022-08-21T02:10:21;11.88;;;5.40;;
58362;SDS011;54977;51.510;7.522;2022-08-21T02:15:26;13.85;;;5.72;;
58362;SDS011;54977;51.510;7.522;2022-08-21T02:20:33;12.13;;;6.40;;
58362;SDS011;54977;51.510;7.522;2022-08-21T02:25:38;18.98;;;7.00;;
58362;SDS011;54977;51.510;7.522;2022-08-21T02:30:42;16.60;;;8.20;;
58362;SDS011;54977;51.510;7.522;2022-08-21T02:35:47;14.15;;;8.23;;
58362;SDS011;54977;51.510;7.522;2022-08-21T02:40:51;17.35;;;8.73;;
58362;SDS011;54977;51.510;7.522;2022-08-21T02:45:57;18.80;;;9.43;;
58362;SDS011;54977;51.510;7.522;2022-08-21T02:51:00;18.92;;;9.48;;
58362;SDS011;54977;51.510;7.522;2022-08-21T02:56:06;21.02;;;9.95;;
58362;SDS011;54977;51.510;7.522;2022-08-21T03:01:10;19.63;;;10.63;;
58362;SDS011;54977;51.510;7.522;2022-08-21T03:06:13;23.20;;;10.45;;
58362;SDS011;54977;51.510;7.522;2022-08-21T03:11:18;17.60;;;11.45;;
58362;SDS011;54977;51.510;7.522;2022-08-21T03:16:20;18.30;;;10.63;;
58362;SDS011;54977;51.510;7.522;2022-08-21T03:21:22;19.45;;;11.30;;
58362;SDS011;54977;51.510;7.522;2022-08-21T03:26:25;19.80;;;11.73;;
58362;SDS011;54977;51.510;7.522;2022-08-21T03:31:28;17.60;;;11.55;;
58362;SDS011;54977;51.510;7.522;2022-08-21T03:36:31;18.05;;;11.15;;
58362;SDS011;54977;51.510;7.522;2022-08-21T03:41:34;22.80;;;11.35;;
58362;SDS011;54977;51.510;7.522;2022-08-21T03:46:36;19.02;;;12.13;;
58362;SDS011;54977;51.510;7.522;2022-08-21T03:51:40;19.73;;;12.43;;
58362;SDS011;54977;51.510;7.522;2022-08-21T03:56:43;22.42;;;12.95;;
58362;SDS011;54977;51.510;7.522;2022-08-21T04:01:51;20.67;;;12.30;;
58362;SDS011;54977;51.510;7.522;2022-08-21T04:06:54;17.58;;;12.05;;
58362;SDS011;54977;51.510;7.522;2022-08-21T04:11:57;21.23;;;12.80;;
58362;SDS011;54977;51.510;7.522;2022-08-21T04:17:00;22.77;;;12.82;;
58362;SDS011;54977;51.510;7.522;2022-08-21T04:22:02;22.92;;;12.40;;
58362;SDS011;54977;51.510;7.522;2022-08-21T04:27:05;20.70;;;12.35;;
58362;SDS011;54977;51.510;7.522;2022-08-21T04:32:07;17.20;;;12.30;;
58362;SDS011;54977;51.510;7.522;2022-08-21T04:37:09;19.77;;;12.73;;
58362;SDS011;54977;51.510;7.522;2022-08-21T04:42:12;20.08;;;12.40;;
58362;SDS011;54977;51.510;7.522;2022-08-21T04:47:14;21.30;;;11.30;;
58362;SDS011;54977;51.510;7.522;2022-08-21T04:52:17;19.25;;;10.32;;
58362;SDS011;54977;51.510;7.522;2022-08-21T04:57:24;22.50;;;11.18;;
58362;SDS011;54977;51.510;7.522;2022-08-21T05:02:26;14.75;;;10.18;;
58362;SDS011;54977;51.510;7.522;2022-08-21T05:07:28;18.30;;;10.07;;
58362;SDS011;54977;51.510;7.522;2022-08-21T05:12:33;20.08;;;9.68;;
58362;SDS011;54977;51.510;7.522;2022-08-21T05:17:36;18.58;;;9.60;;
58362;SDS011;54977;51.510;7.522;2022-08-21T05:22:38;14.75;;;9.73;;
58362;SDS011;54977;51.510;7.522;2022-08-21T05:27:41;15.00;;;9.43;;
58362;SDS011;54977;51.510;7.522;2022-08-21T05:32:43;15.05;;;9.00;;
58362;SDS011;54977;51.510;7.522;2022-08-21T05:37:45;15.80;;;8.63;;
58362;SDS011;54977;51.510;7.522;2022-08-21T05:42:48;17.40;;;9.40;;
58362;SDS011;54977;51.510;7.522;2022-08-21T05:47:51;16.92;;;8.90;;
58362;SDS011;54977;51.510;7.522;2022-08-21T05:52:53;13.10;;;8.85;;
58362;SDS011;54977;51.510;7.522;2022-08-21T05:57:56;12.20;;;8.00;;
58362;SDS011;54977;51.510;7.522;2022-08-21T06:02:58;13.65;;;7.68;;
58362;SDS011;54977;51.510;7.522;2022-08-21T06:08:01;15.93;;;7.70;;
58362;SDS011;54977;51.510;7.522;2022-08-21T06:13:04;13.93;;;7.95;;
58362;SDS011;54977;51.510;7.522;2022-08-21T06:18:06;12.55;;;7.13;;
58362;SDS011;54977;51.510;7.522;2022-08-21T06:23:08;14.35;;;6.78;;
58362;SDS011;54977;51.510;7.522;2022-08-21T06:28:12;12.68;;;6.60;;
58362;SDS011;54977;51.510;7.522;2022-08-21T06:33:13;13.30;;;5.97;;
58362;SDS011;54977;51.510;7.522;2022-08-21T06:38:15;13.43;;;7.10;;
58362;SDS011;54977;51.510;7.522;2022-08-21T06:43:18;10.43;;;6.28;;
58362;SDS011;54977;51.510;7.522;2022-08-21T06:48:20;12.15;;;6.30;;
58362;SDS011;54977;51.510;7.522;2022-08-21T06:53:22;10.07;;;6.15;;
58362;SDS011;54977;51.510;7.522;2022-08-21T06:58:25;13.32;;;5.90;;
58362;SDS011;54977;51.510;7.522;2022-08-21T07:03:28;10.93;;;4.60;;
58362;SDS011;54977;51.510;7.522;2022-08-21T07:08:31;11.13;;;4.85;;
58362;SDS011;54977;51.510;7.522;2022-08-21T07:13:36;15.27;;;5.25;;
58362;SDS011;54977;51.510;7.522;2022-08-21T07:18:38;11.68;;;5.10;;
58362;SDS011;54977;51.510;7.522;2022-08-21T07:23:40;10.27;;;5.13;;
58362;SDS011;54977;51.510;7.522;2022-08-21T07:28:47;13.23;;;5.82;;
58362;SDS011;54977;51.510;7.522;2022-08-21T07:33:50;14.43;;;5.15;;
58362;SDS011;54977;51.510;7.522;2022-08-21T07:38:52;11.35;;;5.00;;
58362;SDS011;54977;51.510;7.522;2022-08-21T07:43:55;12.98;;;5.43;;
58362;SDS011;54977;51.510;7.522;2022-08-21T07:48:57;15.32;;;4.85;;
58362;SDS011;54977;51.510;7.522;2022-08-21T07:53:59;9.60;;;5.03;;
58362;SDS011;54977;51.510;7.522;2022-08-21T07:59:03;15.00;;;5.80;;
58362;SDS011;54977;51.510;7.522;2022-08-21T08:04:05;12.23;;;6.45;;
58362;SDS011;54977;51.510;7.522;2022-08-21T08:09:07;15.88;;;7.60;;
58362;SDS011;54977;51.510;7.522;2022-08-21T08:14:10;14.20;;;6.85;;
58362;SDS011;54977;51.510;7.522;2022-08-21T08:19:12;14.00;;;6.60;;
58362;SDS011;54977;51.510;7.522;2022-08-21T08:24:14;11.15;;;5.53;;
58362;SDS011;54977;51.510;7.522;2022-08-21T08:29:17;18.38;;;6.60;;
58362;SDS011;54977;51.510;7.522;2022-08-21T08:34:19;13.13;;;5.65;;
58362;SDS011;54977;51.510;7.522;2022-08-21T08:39:22;13.13;;;5.78;;
58362;SDS011;54977;51.510;7.522;2022-08-21T08:44:25;15.23;;;6.75;;
58362;SDS011;54977;51.510;7.522;2022-08-21T08:49:29;13.73;;;5.85;;
58362;SDS011;54977;51.510;7.522;2022-08-21T08:54:37;10.27;;;5.38;;
58362;SDS011;54977;51.510;7.522;2022-08-21T08:59:45;11.23;;;5.18;;
58362;SDS011;54977;51.510;7.522;2022-08-21T09:04:50;10.10;;;3.97;;
58362;SDS011;54977;51.510;7.522;2022-08-21T09:09:59;9.65;;;3.90;;
58362;SDS011;54977;51.510;7.522;2022-08-21T09:15:12;11.35;;;2.85;;
58362;SDS011;54977;51.510;7.522;2022-08-21T09:20:27;13.25;;;2.85;;
58362;SDS011;54977;51.510;7.522;2022-08-21T09:25:40;6.90;;;2.63;;
58362;SDS011;54977;51.510;7.522;2022-08-21T09:30:48;9.57;;;2.30;;
58362;SDS011;54977;51.510;7.522;2022-08-21T09:35:55;8.93;;;2.75;;
58362;SDS011;54977;51.510;7.522;2022-08-21T09:41:00;14.68;;;2.25;;
58362;SDS011;54977;51.510;7.522;2022-08-21T09:46:07;10.73;;;2.00;;
58362;SDS011;54977;51.510;7.522;2022-08-21T09:51:11;9.02;;;2.20;;
58362;SDS011;54977;51.510;7.522;2022-08-21T10:01:52;8.60;;;2.05;;
58362;SDS011;54977;51.510;7.522;2022-08-21T10:07:05;10.55;;;2.00;;
58362;SDS011;54977;51.510;7.522;2022-08-21T10:12:15;9.50;;;2.10;;
58362;SDS011;54977;51.510;7.522;2022-08-21T10:17:26;8.55;;;2.08;;
58362;SDS011;54977;51.510;7.522;2022-08-21T10:22:34;7.80;;;2.00;;
58362;SDS011;54977;51.510;7.522;2022-08-21T10:27:44;10.20;;;2.25;;
58362;SDS011;54977;51.510;7.522;2022-08-21T10:33:01;8.35;;;2.08;;
58362;SDS011;54977;51.510;7.522;2022-08-21T10:38:30;9.32;;;1.70;;
58362;SDS011;54977;51.510;7.522;2022-08-21T10:43:56;4.38;;;1.70;;
58362;SDS011;54977;51.510;7.522;2022-08-21T10:49:13;7.38;;;1.67;;
58362;SDS011;54977;51.510;7.522;2022-08-21T10:54:25;4.47;;;1.40;;
58362;SDS011;54977;51.510;7.522;2022-08-21T10:59:33;7.03;;;2.00;;
58362;SDS011;54977;51.510;7.522;2022-08-21T11:04:43;8.15;;;2.50;;
58362;SDS011;54977;51.510;7.522;2022-08-21T11:09:51;8.32;;;1.60;;
58362;SDS011;54977;51.510;7.522;2022-08-21T11:14:56;6.15;;;1.80;;
58362;SDS011;54977;51.510;7.522;2022-08-21T11:20:05;7.50;;;2.03;;
58362;SDS011;54977;51.510;7.522;2022-08-21T11:25:14;5.82;;;1.58;;
58362;SDS011;54977;51.510;7.522;2022-08-21T11:30:22;3.92;;;1.20;;
58362;SDS011;54977;51.510;7.522;2022-08-21T11:35:32;10.52;;;1.88;;
58362;SDS011;54977;51.510;7.522;2022-08-21T11:40:44;7.93;;;1.70;;
58362;SDS011;54977;51.510;7.522;2022-08-21T11:45:59;4.18;;;1.25;;
58362;SDS011;54977;51.510;7.522;2022-08-21T11:51:12;4.18;;;1.30;;
58362;SDS011;54977;51.510;7.522;2022-08-21T11:56:19;5.25;;;1.33;;
58362;SDS011;54977;51.510;7.522;2022-08-21T12:01:29;2.75;;;0.90;;
58362;SDS011;54977;51.510;7.522;2022-08-21T12:06:37;5.18;;;1.35;;
58362;SDS011;54977;51.510;7.522;2022-08-21T12:11:46;4.15;;;1.38;;
58362;SDS011;54977;51.510;7.522;2022-08-21T12:16:50;4.78;;;1.35;;
58362;SDS011;54977;51.510;7.522;2022-08-21T12:21:58;3.17;;;1.15;;
58362;SDS011;54977;51.510;7.522;2022-08-21T12:32:43;4.00;;;1.05;;
58362;SDS011;54977;51.510;7.522;2022-08-21T12:37:50;7.70;;;1.17;;
58362;SDS011;54977;51.510;7.522;2022-08-21T12:42:58;4.28;;;1.10;;
58362;SDS011;54977;51.510;7.522;2022-08-21T12:48:04;5.40;;;1.33;;
58362;SDS011;54977;51.510;7.522;2022-08-21T12:53:12;3.42;;;1.15;;
58362;SDS011;54977;51.510;7.522;2022-08-21T12:58:27;2.65;;;0.95;;
58362;SDS011;54977;51.510;7.522;2022-08-21T13:03:30;3.03;;;0.80;;
58362;SDS011;54977;51.510;7.522;2022-08-21T13:08:37;3.72;;;1.08;;
58362;SDS011;54977;51.510;7.522;2022-08-21T13:13:40;2.92;;;1.10;;
58362;SDS011;54977;51.510;7.522;2022-08-21T13:18:51;3.50;;;0.80;;
58362;SDS011;54977;51.510;7.522;2022-08-21T13:24:08;2.25;;;0.63;;
58362;SDS011;54977;51.510;7.522;2022-08-21T13:29:16;4.80;;;0.70;;
58362;SDS011;54977;51.510;7.522;2022-08-21T13:34:20;3.53;;;0.80;;
58362;SDS011;54977;51.510;7.522;2022-08-21T13:39:25;3.72;;;0.80;;
58362;SDS011;54977;51.510;7.522;2022-08-21T13:44:31;2.72;;;0.80;;
58362;SDS011;54977;51.510;7.522;2022-08-21T13:49:37;3.83;;;0.63;;
58362;SDS011;54977;51.510;7.522;2022-08-21T13:54:43;2.50;;;0.68;;
58362;SDS011;54977;51.510;7.522;2022-08-21T13:59:45;3.05;;;1.05;;
58362;SDS011;54977;51.510;7.522;2022-08-21T14:04:50;2.70;;;0.98;;
58362;SDS011;54977;51.510;7.522;2022-08-21T14:09:56;3.92;;;0.65;;
58362;SDS011;54977;51.510;7.522;2022-08-21T14:15:03;2.15;;;0.65;;
58362;SDS011;54977;51.510;7.522;2022-08-21T14:20:08;3.45;;;1.05;;
58362;SDS011;54977;51.510;7.522;2022-08-21T14:25:13;3.60;;;0.80;;
58362;SDS011;54977;51.510;7.522;2022-08-21T14:30:28;2.40;;;0.85;;
58362;SDS011;54977;51.510;7.522;2022-08-21T14:35:31;4.28;;;1.20;;
58362;SDS011;54977;51.510;7.522;2022-08-21T14:40:35;3.33;;;0.70;;
58362;SDS011;54977;51.510;7.522;2022-08-21T14:45:36;3.65;;;0.70;;
58362;SDS011;54977;51.510;7.522;2022-08-21T14:50:40;2.05;;;0.60;;
58362;SDS011;54977;51.510;7.522;2022-08-21T14:55:44;3.65;;;1.00;;
58362;SDS011;54977;51.510;7.522;2022-08-21T15:01:04;2.95;;;0.90;;
58362;SDS011;54977;51.510;7.522;2022-08-21T15:06:07;1.85;;;0.70;;
58362;SDS011;54977;51.510;7.522;2022-08-21T15:11:12;2.08;;;0.73;;
58362;SDS011;54977;51.510;7.522;2022-08-21T15:16:19;4.15;;;0.95;;
58362;SDS011;54977;51.510;7.522;2022-08-21T15:21:20;4.05;;;1.10;;
58362;SDS011;54977;51.510;7.522;2022-08-21T15:26:24;2.55;;;0.80;;
58362;SDS011;54977;51.510;7.522;2022-08-21T15:31:26;4.10;;;1.20;;
58362;SDS011;54977;51.510;7.522;2022-08-21T15:36:29;2.58;;;1.05;;
58362;SDS011;54977;51.510;7.522;2022-08-21T15:41:32;2.70;;;0.80;;
58362;SDS011;54977;51.510;7.522;2022-08-21T15:46:34;4.00;;;0.85;;
58362;SDS011;54977;51.510;7.522;2022-08-21T15:51:36;3.17;;;0.93;;
58362;SDS011;54977;51.510;7.522;2022-08-21T15:56:39;2.38;;;0.80;;
58362;SDS011;54977;51.510;7.522;2022-08-21T16:01:46;3.65;;;1.10;;
58362;SDS011;54977;51.510;7.522;2022-08-21T16:06:49;6.53;;;1.00;;
58362;SDS011;54977;51.510;7.522;2022-08-21T16:11:53;3.88;;;1.00;;
58362;SDS011;54977;51.510;7.522;2022-08-21T16:16:55;2.33;;;0.88;;
58362;SDS011;54977;51.510;7.522;2022-08-21T16:21:57;3.47;;;0.90;;
58362;SDS011;54977;51.510;7.522;2022-08-21T16:27:00;3.10;;;1.00;;
58362;SDS011;54977;51.510;7.522;2022-08-21T16:32:02;3.97;;;1.10;;
58362;SDS011;54977;51.510;7.522;2022-08-21T16:37:05;3.65;;;1.08;;
58362;SDS011;54977;51.510;7.522;2022-08-21T16:42:09;2.10;;;0.82;;
58362;SDS011;54977;51.510;7.522;2022-08-21T16:47:15;4.30;;;1.27;;
58362;SDS011;54977;51.510;7.522;2022-08-21T16:52:17;5.03;;;0.90;;
58362;SDS011;54977;51.510;7.522;2022-08-21T16:57:20;5.25;;;1.40;;
58362;SDS011;54977;51.510;7.522;2022-08-21T17:02:24;3.55;;;1.20;;
58362;SDS011;54977;51.510;7.522;2022-08-21T17:07:30;4.55;;;1.27;;
58362;SDS011;54977;51.510;7.522;2022-08-21T17:12:33;3.15;;;1.10;;
58362;SDS011;54977;51.510;7.522;2022-08-21T17:17:35;4.53;;;1.25;;
58362;SDS011;54977;51.510;7.522;2022-08-21T17:22:38;3.35;;;0.90;;
58362;SDS011;54977;51.510;7.522;2022-08-21T17:27:41;6.45;;;1.50;;
58362;SDS011;54977;51.510;7.522;2022-08-21T17:32:44;4.88;;;1.27;;
58362;SDS011;54977;51.510;7.522;2022-08-21T17:37:47;5.40;;;1.52;;
58362;SDS011;54977;51.510;7.522;2022-08-21T17:42:51;3.42;;;1.55;;
58362;SDS011;54977;51.510;7.522;2022-08-21T17:47:53;4.93;;;1.38;;
58362;SDS011;54977;51.510;7.522;2022-08-21T17:52:55;4.05;;;1.60;;
58362;SDS011;54977;51.510;7.522;2022-08-21T17:57:58;3.83;;;1.73;;
58362;SDS011;54977;51.510;7.522;2022-08-21T18:03:02;5.05;;;1.60;;
58362;SDS011;54977;51.510;7.522;2022-08-21T18:08:07;6.10;;;1.50;;
58362;SDS011;54977;51.510;7.522;2022-08-21T18:13:12;3.70;;;1.33;;
58362;SDS011;54977;51.510;7.522;2022-08-21T18:18:15;7.72;;;1.55;;
58362;SDS011;54977;51.510;7.522;2022-08-21T18:23:17;5.65;;;1.73;;
58362;SDS011;54977;51.510;7.522;2022-08-21T18:28:21;7.50;;;1.63;;
58362;SDS011;54977;51.510;7.522;2022-08-21T18:33:23;5.20;;;1.80;;
58362;SDS011;54977;51.510;7.522;2022-08-21T18:38:25;3.60;;;1.30;;
58362;SDS011;54977;51.510;7.522;2022-08-21T18:43:29;5.00;;;1.77;;
58362;SDS011;54977;51.510;7.522;2022-08-21T18:48:31;5.70;;;1.60;;
58362;SDS011;54977;51.510;7.522;2022-08-21T18:53:32;5.13;;;1.67;;
58362;SDS011;54977;51.510;7.522;2022-08-21T18:58:36;8.25;;;2.03;;
58362;SDS011;54977;51.510;7.522;2022-08-21T19:03:38;6.68;;;2.20;;
58362;SDS011;54977;51.510;7.522;2022-08-21T19:08:40;5.30;;;1.90;;
58362;SDS011;54977;51.510;7.522;2022-08-21T19:13:43;4.45;;;1.83;;
58362;SDS011;54977;51.510;7.522;2022-08-21T19:18:46;7.15;;;1.92;;
58362;SDS011;54977;51.510;7.522;2022-08-21T19:23:48;3.75;;;1.40;;
58362;SDS011;54977;51.510;7.522;2022-08-21T19:28:52;5.57;;;2.10;;
58362;SDS011;54977;51.510;7.522;2022-08-21T19:33:57;6.53;;;2.17;;
58362;SDS011;54977;51.510;7.522;2022-08-21T19:39:02;8.50;;;2.35;;
58362;SDS011;54977;51.510;7.522;2022-08-21T19:44:06;3.90;;;2.03;;
58362;SDS011;54977;51.510;7.522;2022-08-21T19:49:11;6.63;;;2.47;;
58362;SDS011;54977;51.510;7.522;2022-08-21T19:54:16;5.95;;;2.20;;
58362;SDS011;54977;51.510;7.522;2022-08-21T19:59:21;6.95;;;2.35;;
58362;SDS011;54977;51.510;7.522;2022-08-21T20:04:24;5.03;;;2.50;;
58362;SDS011;54977;51.510;7.522;2022-08-21T20:09:26;5.28;;;2.65;;
58362;SDS011;54977;51.510;7.522;2022-08-21T20:14:29;6.20;;;2.83;;
58362;SDS011;54977;51.510;7.522;2022-08-21T20:19:32;8.02;;;3.10;;
58362;SDS011;54977;51.510;7.522;2022-08-21T20:24:34;6.47;;;2.72;;
58362;SDS011;54977;51.510;7.522;2022-08-21T20:29:38;5.70;;;2.85;;
58362;SDS011;54977;51.510;7.522;2022-08-21T20:34:40;5.80;;;2.08;;
58362;SDS011;54977;51.510;7.522;2022-08-21T20:39:42;7.60;;;2.50;;
58362;SDS011;54977;51.510;7.522;2022-08-21T20:44:45;8.20;;;2.65;;
58362;SDS011;54977;51.510;7.522;2022-08-21T20:49:49;7.03;;;2.70;;
58362;SDS011;54977;51.510;7.522;2022-08-21T20:54:56;6.63;;;2.65;;
58362;SDS011;54977;51.510;7.522;2022-08-21T21:00:05;7.53;;;2.63;;
58362;SDS011;54977;51.510;7.522;2022-08-21T21:05:12;6.20;;;2.35;;
58362;SDS011;54977;51.510;7.522;2022-08-21T21:10:19;7.10;;;2.45;;
58362;SDS011;54977;51.510;7.522;2022-08-21T21:15:29;5.85;;;2.10;;
58362;SDS011;54977;51.510;7.522;2022-08-21T21:20:33;6.20;;;2.15;;
58362;SDS011;54977;51.510;7.522;2022-08-21T21:25:41;9.32;;;2.20;;
58362;SDS011;54977;51.510;7.522;2022-08-21T21:30:51;5.50;;;2.28;;
58362;SDS011;54977;51.510;7.522;2022-08-21T21:35:55;5.70;;;2.53;;
58362;SDS011;54977;51.510;7.522;2022-08-21T21:41:06;6.65;;;2.20;;
58362;SDS011;54977;51.510;7.522;2022-08-21T21:46:16;5.88;;;2.50;;
58362;SDS011;54977;51.510;7.522;2022-08-21T21:51:30;7.63;;;2.47;;
58362;SDS011;54977;51.510;7.522;2022-08-21T21:56:44;8.82;;;2.60;;
58362;SDS011;54977;51.510;7.522;2022-08-21T22:01:56;6.43;;;2.53;;
58362;SDS011;54977;51.510;7.522;2022-08-21T22:07:06;9.55;;;2.70;;
58362;SDS011;54977;51.510;7.522;2022-08-21T22:12:20;5.28;;;2.65;;
58362;SDS011;54977;51.510;7.522;2022-08-21T22:17:37;6.63;;;2.42;;
58362;SDS011;54977;51.510;7.522;2022-08-21T22:22:46;6.78;;;2.83;;
58362;SDS011;54977;51.510;7.522;2022-08-21T22:27:50;6.63;;;3.00;;
58362;SDS011;54977;51.510;7.522;2022-08-21T22:33:09;9.05;;;2.45;;
58362;SDS011;54977;51.510;7.522;2022-08-21T22:38:14;9.93;;;2.90;;
58362;SDS011;54977;51.510;7.522;2022-08-21T22:43:20;9.52;;;3.17;;
58362;SDS011;54977;51.510;7.522;2022-08-21T22:48:25;8.95;;;3.30;;
58362;SDS011;54977;51.510;7.522;2022-08-21T22:53:30;9.07;;;3.17;;
58362;SDS011;54977;51.510;7.522;2022-08-21T22:58:35;8.95;;;3.22;;
58362;SDS011;54977;51.510;7.522;2022-08-21T23:03:43;6.50;;;3.13;;
58362;SDS011;54977;51.510;7.522;2022-08-21T23:08:46;7.70;;;3.20;;
58362;SDS011;54977;51.510;7.522;2022-08-21T23:13:49;7.70;;;3.60;;
58362;SDS011;54977;51.510;7.522;2022-08-21T23:18:55;13.85;;;5.28;;
58362;SDS011;54977;51.510;7.522;2022-08-21T23:24:08;8.95;;;3.83;;
58362;SDS011;54977;51.510;7.522;2022-08-21T23:29:19;6.25;;;3.63;;
58362;SDS011;54977;51.510;7.522;2022-08-21T23:34:31;10.55;;;4.07;;
58362;SDS011;54977;51.510;7.522;2022-08-21T23:39:43;7.38;;;4.40;;
58362;SDS011;54977;51.510;7.522;2022-08-21T23:44:55;9.65;;;4.05;;
58362;SDS011;54977;51.510;7.522;2022-08-21T23:50:06;9.45;;;4.10;;
